El Cambio — PE3666 — position and weather

sailwx.info

Track history (hours):
 
Tides and Currents Weather Stations Pressure Air Temp Water Temp Dewpoint Dewpoint Depression Visibility Wind Speed Wind Dir Waves Ship Positions

El Cambio

Last reported at 2018-Jan-11 13:18 UTC. Time now 2018-Jan-20 03:41 UTC.
Position N 44°52' E 020°22'.
Warning: this ship's position is 8 days out of date.

Length 86 m; draft 1.3 m.

Type: Tanker. MMSI: 244650866.

Date/timePositionNaut miles runAvg speedWind from/ knotsBaromVisibWave heightAir tempDewpointWater temp
2018-Jan-11 13:18N 44°52' E 020°22'0 0.0
2018-Jan-11 13:00N 44°52' E 020°22'0 0.0
2018-Jan-11 12:30N 44°52' E 020°22'0 0.0
2018-Jan-11 12:00N 44°52' E 020°22'0 0.0
2018-Jan-11 11:30N 44°52' E 020°22'0 0.0
2018-Jan-11 11:00N 44°52' E 020°22'0 0.0
2018-Jan-11 10:30N 44°52' E 020°22'0 0.0
2018-Jan-11 10:00N 44°52' E 020°22'0 0.0
2018-Jan-11 09:30N 44°52' E 020°22'0 0.0
2018-Jan-11 09:00N 44°52' E 020°22'0 0.0
2018-Jan-11 08:30N 44°52' E 020°22'0 0.0
2018-Jan-11 08:00N 44°52' E 020°22'0 0.0
2018-Jan-11 07:30N 44°52' E 020°22'0 0.0
2018-Jan-11 07:00N 44°52' E 020°22'0 0.0
2018-Jan-11 06:30N 44°52' E 020°22'0 0.0
2018-Jan-11 06:00N 44°52' E 020°22'0 0.0
2018-Jan-11 05:30N 44°52' E 020°22'0 0.0
2018-Jan-11 05:00N 44°52' E 020°22'0 0.0
2018-Jan-11 04:30N 44°52' E 020°22'0 0.0
2018-Jan-11 04:00N 44°52' E 020°22'0 0.0
2018-Jan-11 03:30N 44°52' E 020°22'0 0.0
2018-Jan-11 03:00N 44°52' E 020°22'0 0.0
2018-Jan-11 02:30N 44°52' E 020°22'0 0.0
2018-Jan-11 02:00N 44°52' E 020°22'0 0.0
2018-Jan-11 01:30N 44°52' E 020°22'0 0.0
2018-Jan-11 01:00N 44°52' E 020°22'0 0.0
2018-Jan-11 00:30N 44°52' E 020°22'0 0.0
2018-Jan-11 00:00N 44°52' E 020°22'0 0.0
2018-Jan-10 23:30N 44°52' E 020°22'0 0.0
2018-Jan-10 23:00N 44°52' E 020°22'0 0.0
2018-Jan-10 22:30N 44°52' E 020°22'0 0.0
2018-Jan-10 22:00N 44°52' E 020°22'0 0.0
2018-Jan-10 21:30N 44°52' E 020°22'0 0.0
2018-Jan-10 21:00N 44°52' E 020°22'0 0.0
2018-Jan-10 20:30N 44°52' E 020°22'0 0.0
2018-Jan-10 20:00N 44°52' E 020°22'0 0.0
2018-Jan-10 19:30N 44°52' E 020°22'0 0.0
2018-Jan-10 19:00N 44°52' E 020°22'2 4.4
2018-Jan-10 18:30N 44°51' E 020°25'2 4.0
2018-Jan-10 18:00N 44°50' E 020°28'1 1.4
2018-Jan-10 17:30N 44°50' E 020°27'4 7.3
2018-Jan-10 17:00N 44°47' E 020°23'4 8.8
2018-Jan-10 16:30N 44°44' E 020°19'2 4.2
2018-Jan-10 16:00N 44°42' E 020°18'3 5.5
2018-Jan-10 15:30N 44°45' E 020°19'4 7.5
2018-Jan-10 15:00N 44°48' E 020°23'3 6.0
2018-Jan-10 14:30N 44°49' E 020°27'1 2.1
2018-Jan-10 14:00N 44°50' E 020°27'3 6.7
2018-Jan-10 13:30N 44°48' E 020°23'4 8.1
2018-Jan-10 13:00N 44°45' E 020°19'3 5.4
2018-Jan-10 12:30N 44°42' E 020°18'2 4.5
2018-Jan-10 12:00N 44°40' E 020°17'3 5.9
2018-Jan-10 11:30N 44°41' E 020°14'1 2.0
2018-Jan-10 11:00N 44°42' E 020°12'2 4.3
2018-Jan-10 10:30N 44°41' E 020°09'2 4.2
2018-Jan-10 10:00N 44°42' E 020°07'9 5.7
2018-Jan-10 08:28N 44°39' E 019°55'3 7.1
2018-Jan-10 08:00N 44°41' E 019°60'3 5.1
2018-Jan-10 07:31N 44°42' E 019°56'  
Track history (hours):
 
Tides and Currents Weather Stations Pressure Air Temp Water Temp Dewpoint Dewpoint Depression Visibility Wind Speed Wind Dir Waves Ship Positions

El Cambio

Last reported at 2018-Jan-11 13:18 UTC. Time now 2018-Jan-20 03:41 UTC.
Position N 44°52' E 020°22'.
Warning: this ship's position is 8 days out of date.

Length 86 m; draft 1.3 m.

Type: Tanker. MMSI: 244650866.

Date/timePositionNaut miles runAvg speedWind from/ knotsBaromVisibWave heightAir tempDewpointWater temp
2018-Jan-11 13:18N 44°52' E 020°22'0 0.0
2018-Jan-11 13:00N 44°52' E 020°22'0 0.0
2018-Jan-11 12:30N 44°52' E 020°22'0 0.0
2018-Jan-11 12:00N 44°52' E 020°22'0 0.0
2018-Jan-11 11:30N 44°52' E 020°22'0 0.0
2018-Jan-11 11:00N 44°52' E 020°22'0 0.0
2018-Jan-11 10:30N 44°52' E 020°22'0 0.0
2018-Jan-11 10:00N 44°52' E 020°22'0 0.0
2018-Jan-11 09:30N 44°52' E 020°22'0 0.0
2018-Jan-11 09:00N 44°52' E 020°22'0 0.0
2018-Jan-11 08:30N 44°52' E 020°22'0 0.0
2018-Jan-11 08:00N 44°52' E 020°22'0 0.0
2018-Jan-11 07:30N 44°52' E 020°22'0 0.0
2018-Jan-11 07:00N 44°52' E 020°22'0 0.0
2018-Jan-11 06:30N 44°52' E 020°22'0 0.0
2018-Jan-11 06:00N 44°52' E 020°22'0 0.0
2018-Jan-11 05:30N 44°52' E 020°22'0 0.0
2018-Jan-11 05:00N 44°52' E 020°22'0 0.0
2018-Jan-11 04:30N 44°52' E 020°22'0 0.0
2018-Jan-11 04:00N 44°52' E 020°22'0 0.0
2018-Jan-11 03:30N 44°52' E 020°22'0 0.0
2018-Jan-11 03:00N 44°52' E 020°22'0 0.0
2018-Jan-11 02:30N 44°52' E 020°22'0 0.0
2018-Jan-11 02:00N 44°52' E 020°22'0 0.0
2018-Jan-11 01:30N 44°52' E 020°22'0 0.0
2018-Jan-11 01:00N 44°52' E 020°22'0 0.0
2018-Jan-11 00:30N 44°52' E 020°22'0 0.0
2018-Jan-11 00:00N 44°52' E 020°22'0 0.0
2018-Jan-10 23:30N 44°52' E 020°22'0 0.0
2018-Jan-10 23:00N 44°52' E 020°22'0 0.0
2018-Jan-10 22:30N 44°52' E 020°22'0 0.0
2018-Jan-10 22:00N 44°52' E 020°22'0 0.0
2018-Jan-10 21:30N 44°52' E 020°22'0 0.0
2018-Jan-10 21:00N 44°52' E 020°22'0 0.0
2018-Jan-10 20:30N 44°52' E 020°22'0 0.0
2018-Jan-10 20:00N 44°52' E 020°22'0 0.0
2018-Jan-10 19:30N 44°52' E 020°22'0 0.0
2018-Jan-10 19:00N 44°52' E 020°22'2 4.4
2018-Jan-10 18:30N 44°51' E 020°25'2 4.0
2018-Jan-10 18:00N 44°50' E 020°28'1 1.4
2018-Jan-10 17:30N 44°50' E 020°27'4 7.3
2018-Jan-10 17:00N 44°47' E 020°23'4 8.8
2018-Jan-10 16:30N 44°44' E 020°19'2 4.2
2018-Jan-10 16:00N 44°42' E 020°18'3 5.5
2018-Jan-10 15:30N 44°45' E 020°19'4 7.5
2018-Jan-10 15:00N 44°48' E 020°23'3 6.0
2018-Jan-10 14:30N 44°49' E 020°27'1 2.1
2018-Jan-10 14:00N 44°50' E 020°27'3 6.7
2018-Jan-10 13:30N 44°48' E 020°23'4 8.1
2018-Jan-10 13:00N 44°45' E 020°19'3 5.4
2018-Jan-10 12:30N 44°42' E 020°18'2 4.5
2018-Jan-10 12:00N 44°40' E 020°17'3 5.9
2018-Jan-10 11:30N 44°41' E 020°14'1 2.0
2018-Jan-10 11:00N 44°42' E 020°12'2 4.3
2018-Jan-10 10:30N 44°41' E 020°09'2 4.2
2018-Jan-10 10:00N 44°42' E 020°07'9 5.7
2018-Jan-10 08:28N 44°39' E 019°55'3 7.1
2018-Jan-10 08:00N 44°41' E 019°60'3 5.1
2018-Jan-10 07:31N 44°42' E 019°56'  

Dump ship's entire track history